createdAt,value
2022-10-19T00:01:18.580Z,101140.13
2022-10-19T00:06:26.285Z,101135.09
2022-10-19T00:09:14.913Z,101127.16
2022-10-19T00:11:45.348Z,101124.53
2022-10-19T00:14:17.158Z,101113.03
2022-10-19T00:16:46.039Z,101108.53
2022-10-19T00:19:14.777Z,101104.81
2022-10-19T00:21:41.802Z,101101.94
2022-10-19T00:24:09.426Z,101099.84
2022-10-19T00:26:36.602Z,101096.97
2022-10-19T00:29:05.692Z,101092.31
2022-10-19T00:31:33.107Z,101090.41
2022-10-19T00:34:01.167Z,101094.72
2022-10-19T00:36:29.664Z,101096.34
2022-10-19T00:38:58.837Z,101087.47
2022-10-19T00:41:30.800Z,101080.44
2022-10-19T00:44:29.856Z,101084.78
2022-10-19T00:47:05.105Z,101070.72
2022-10-19T00:49:34.064Z,101066.25
2022-10-19T00:52:11.938Z,101060.94
2022-10-19T00:54:40.690Z,101062.63
2022-10-19T00:57:08.846Z,101058.06
2022-10-19T00:59:37.546Z,101051.03
2022-10-19T01:02:05.979Z,101046.78
2022-10-19T01:04:36.703Z,101049.44
2022-10-19T01:07:05.494Z,101034.47
2022-10-19T01:09:32.893Z,101030.09
2022-10-19T01:12:30.090Z,101018.53
2022-10-19T01:15:03.320Z,101033.41
2022-10-19T01:17:31.570Z,101019.38
2022-10-19T01:20:29.429Z,101022.91
2022-10-19T01:23:29.999Z,101027.25
2022-10-19T01:26:32.620Z,101025.47
2022-10-19T01:29:11.952Z,101017.38
2022-10-19T01:32:00.952Z,101021.63
2022-10-19T01:34:55.966Z,101014.50
2022-10-19T01:37:37.608Z,101004.81
2022-10-19T01:40:15.383Z,101002.97
2022-10-19T01:45:30.249Z,101005.44
2022-10-19T01:48:10.009Z,101001.22
2022-10-19T01:50:49.106Z,101003.13
2022-10-19T01:53:19.847Z,101008.53
2022-10-19T01:55:51.498Z,100999.75
2022-10-19T01:58:24.964Z,100986.66
2022-10-19T02:00:55.370Z,100987.41
2022-10-19T02:03:24.979Z,100983.97
2022-10-19T02:05:54.279Z,100977.69
2022-10-19T02:08:30.438Z,100983.78
2022-10-19T02:10:59.981Z,100979.41
2022-10-19T02:13:29.394Z,100963.69
2022-10-19T02:16:02.177Z,100976.78
2022-10-19T02:18:34.395Z,100963.59
2022-10-19T02:21:04.004Z,100951.31
2022-10-19T02:23:31.397Z,100957.63
2022-10-19T02:25:58.838Z,100957.91
2022-10-19T02:31:00.085Z,100952.06
2022-10-19T02:33:28.906Z,100951.13
2022-10-19T02:35:56.559Z,100959.06
2022-10-19T02:38:25.078Z,100950.25
2022-10-19T02:41:07.445Z,100951.97
2022-10-19T02:43:38.579Z,100955.47
2022-10-19T02:46:21.441Z,100949.31
2022-10-19T02:48:51.091Z,100942.38
2022-10-19T02:51:36.891Z,100940.72
2022-10-19T02:54:06.701Z,100945.13
2022-10-19T02:56:35.458Z,100946.13
2022-10-19T02:59:03.150Z,100941.69
2022-10-19T03:01:30.210Z,100943.50
2022-10-19T03:03:57.468Z,100939.22
2022-10-19T03:06:24.580Z,100933.09
2022-10-19T03:08:51.806Z,100934.91
2022-10-19T03:11:18.793Z,100934.88
2022-10-19T03:16:13.993Z,100927.88
2022-10-19T03:18:41.440Z,100919.16
2022-10-19T03:21:13.392Z,100924.41
2022-10-19T03:23:40.825Z,100934.00
2022-10-19T03:26:11.495Z,100930.53
2022-10-19T03:28:41.187Z,100934.06
2022-10-19T03:31:08.251Z,100924.47
2022-10-19T03:33:35.514Z,100926.13
2022-10-19T03:36:21.886Z,100923.44
2022-10-19T03:38:53.745Z,100919.94
2022-10-19T03:41:22.726Z,100927.00
2022-10-19T03:43:50.101Z,100922.75
2022-10-19T03:46:17.407Z,100932.50
2022-10-19T03:48:45.104Z,100924.75
2022-10-19T03:51:14.559Z,100924.03
2022-10-19T03:53:41.941Z,100928.44
2022-10-19T03:56:13.011Z,100911.88
2022-10-19T03:58:42.294Z,100917.94
2022-10-19T04:01:12.979Z,100916.97
2022-10-19T04:03:41.245Z,100908.25
2022-10-19T04:06:21.341Z,100902.91
2022-10-19T04:08:50.262Z,100905.25
2022-10-19T04:11:20.345Z,100902.53
2022-10-19T04:13:52.404Z,100908.72
2022-10-19T04:16:20.949Z,100905.00
2022-10-19T04:18:48.662Z,100897.84
2022-10-19T04:21:38.558Z,100894.13
2022-10-19T04:24:10.608Z,100893.22
2022-10-19T04:27:02.488Z,100879.06
2022-10-19T04:29:32.413Z,100879.78
2022-10-19T04:31:59.755Z,100870.91
2022-10-19T04:34:28.298Z,100881.41
2022-10-19T04:36:55.395Z,100874.25
2022-10-19T04:39:22.625Z,100870.72
2022-10-19T04:41:49.739Z,100871.59
2022-10-19T04:44:17.889Z,100864.66
2022-10-19T04:46:44.871Z,100880.38
2022-10-19T04:49:16.472Z,100881.38
2022-10-19T04:51:52.813Z,100881.38
2022-10-19T04:54:20.091Z,100872.53
2022-10-19T04:56:47.099Z,100871.63
2022-10-19T04:59:16.844Z,100882.19
2022-10-19T05:01:46.384Z,100878.75
2022-10-19T05:04:14.620Z,100869.22
2022-10-19T05:06:41.660Z,100874.56
2022-10-19T05:09:08.872Z,100878.91
2022-10-19T05:11:36.026Z,100868.31
2022-10-19T05:14:04.537Z,100876.38
2022-10-19T05:16:34.066Z,100872.06
2022-10-19T05:19:03.603Z,100868.53
2022-10-19T05:21:31.081Z,100872.06
2022-10-19T05:23:58.446Z,100875.44
2022-10-19T05:26:27.193Z,100868.41
2022-10-19T05:29:00.819Z,100868.28
2022-10-19T05:31:29.952Z,100872.69
2022-10-19T05:33:57.748Z,100871.75
2022-10-19T05:36:34.901Z,100868.22
2022-10-19T05:39:23.044Z,100868.13
2022-10-19T05:41:50.239Z,100872.41
2022-10-19T05:44:22.665Z,100861.69
2022-10-19T05:46:51.112Z,100862.53
2022-10-19T05:49:22.216Z,100872.09
2022-10-19T05:51:50.789Z,100866.75
2022-10-19T05:54:20.361Z,100867.56
2022-10-19T05:56:50.060Z,100861.38
2022-10-19T05:59:19.713Z,100867.44
2022-10-19T06:01:47.451Z,100862.88
2022-10-19T06:06:45.736Z,100860.78
2022-10-19T06:09:13.253Z,100849.22
2022-10-19T06:11:42.312Z,100860.38
2022-10-19T06:14:12.596Z,100860.94
2022-10-19T06:16:40.667Z,100864.28
2022-10-19T06:19:08.101Z,100859.63
2022-10-19T06:21:36.059Z,100855.81
2022-10-19T06:24:05.864Z,100850.25
2022-10-19T06:26:34.973Z,100848.94
2022-10-19T06:29:03.765Z,100847.00
2022-10-19T06:31:32.214Z,100845.59
2022-10-19T06:34:00.973Z,100842.72
2022-10-19T06:36:30.957Z,100843.13
2022-10-19T06:39:01.833Z,100836.53
2022-10-19T06:41:30.537Z,100839.66
2022-10-19T06:43:58.456Z,100830.63
2022-10-19T06:46:27.682Z,100845.97
2022-10-19T06:49:00.820Z,100835.00
2022-10-19T06:51:29.421Z,100830.22
2022-10-19T06:54:00.649Z,100824.34
2022-10-19T06:56:27.781Z,100829.72
2022-10-19T06:58:55.903Z,100817.03
2022-10-19T07:01:24.458Z,100828.59
2022-10-19T07:03:52.898Z,100816.53
2022-10-19T07:06:20.496Z,100827.28
2022-10-19T07:08:48.889Z,100816.09
2022-10-19T07:11:18.349Z,100812.50
2022-10-19T07:13:45.749Z,100828.34
2022-10-19T07:16:17.978Z,100815.28
2022-10-19T07:18:48.469Z,100814.34
2022-10-19T07:21:16.877Z,100796.88
2022-10-19T07:23:47.181Z,100808.38
2022-10-19T07:26:28.345Z,100809.47
2022-10-19T07:28:57.351Z,100798.88
2022-10-19T07:31:26.567Z,100802.56
2022-10-19T07:33:55.585Z,100809.13
2022-10-19T07:36:24.062Z,100805.31
2022-10-19T07:38:51.843Z,100805.28
2022-10-19T07:41:21.139Z,100786.91
2022-10-19T07:43:49.960Z,100801.22
2022-10-19T07:46:19.701Z,100790.09
2022-10-19T07:48:47.555Z,100808.16
2022-10-19T07:51:16.545Z,100798.09
2022-10-19T07:53:44.196Z,100791.59
2022-10-19T07:56:22.916Z,100795.25
2022-10-19T07:58:51.356Z,100783.22
2022-10-19T08:01:23.786Z,100791.22
2022-10-19T08:04:48.739Z,100773.06
2022-10-19T08:06:43.644Z,100773.94
2022-10-19T08:09:23.030Z,100770.75
2022-10-19T08:11:59.169Z,100777.00
2022-10-19T08:14:26.847Z,100771.28
2022-10-19T08:16:54.422Z,100756.00
2022-10-19T08:19:22.754Z,100758.16
2022-10-19T08:21:52.174Z,100775.09
2022-10-19T08:24:20.916Z,100777.13
2022-10-19T08:26:51.275Z,100765.66
2022-10-19T08:29:26.644Z,100767.38
2022-10-19T08:32:02.010Z,100769.59
2022-10-19T08:34:29.250Z,100764.38
2022-10-19T08:36:58.908Z,100761.47
2022-10-19T08:39:28.123Z,100748.00
2022-10-19T08:42:16.514Z,100756.16
2022-10-19T08:45:15.501Z,100759.78
2022-10-19T08:48:01.225Z,100759.06
2022-10-19T08:50:45.339Z,100743.78
2022-10-19T08:53:19.744Z,100752.34
2022-10-19T08:56:26.837Z,100755.94
2022-10-19T08:59:18.965Z,100761.66
2022-10-19T09:01:51.801Z,100756.13
2022-10-19T09:07:31.489Z,100759.22
2022-10-19T09:10:10.948Z,100761.28
2022-10-19T09:12:55.100Z,100753.56
2022-10-19T09:15:40.184Z,100755.63
2022-10-19T09:18:29.098Z,100757.59
2022-10-19T09:21:06.478Z,100737.72
2022-10-19T09:23:55.350Z,100762.00
2022-10-19T09:26:27.973Z,100743.69
2022-10-19T09:29:04.798Z,100755.09
2022-10-19T09:31:40.231Z,100755.09
2022-10-19T09:34:21.723Z,100757.91
2022-10-19T09:36:57.503Z,100762.50
2022-10-19T09:39:29.341Z,100763.72
2022-10-19T09:42:26.491Z,100760.78
2022-10-19T09:44:55.157Z,100751.81
2022-10-19T09:47:39.143Z,100767.81
2022-10-19T09:50:18.405Z,100763.72
2022-10-19T09:52:55.434Z,100772.16
2022-10-19T09:55:45.712Z,100775.63
2022-10-19T09:58:29.232Z,100759.06
2022-10-19T10:01:02.071Z,100757.09
2022-10-19T10:03:36.357Z,100754.28
2022-10-19T10:06:07.275Z,100753.91
2022-10-19T10:08:38.192Z,100762.38
2022-10-19T10:11:24.918Z,100753.66
2022-10-19T10:13:54.567Z,100755.91
2022-10-19T10:16:24.674Z,100754.91
2022-10-19T10:18:57.036Z,100765.44
2022-10-19T10:21:27.613Z,100760.38
2022-10-19T10:24:16.932Z,100743.50
2022-10-19T10:26:47.144Z,100754.69
2022-10-19T10:29:25.939Z,100743.28
2022-10-19T10:32:09.165Z,100743.59
2022-10-19T10:34:51.910Z,100734.34
2022-10-19T10:37:32.549Z,100740.47
2022-10-19T10:40:03.902Z,100754.34
2022-10-19T10:42:45.747Z,100740.78
2022-10-19T10:45:24.249Z,100751.22
2022-10-19T10:47:53.056Z,100751.97
2022-10-19T10:50:27.938Z,100745.78
2022-10-19T10:53:03.855Z,100743.00
2022-10-19T10:55:32.800Z,100734.50
2022-10-19T10:58:26.861Z,100729.63
2022-10-19T11:01:01.100Z,100723.00
2022-10-19T11:03:33.259Z,100723.19
2022-10-19T11:06:02.706Z,100727.31
2022-10-19T11:08:52.376Z,100714.75
2022-10-19T11:11:24.554Z,100726.06
2022-10-19T11:14:46.186Z,100716.03
2022-10-19T11:17:36.956Z,100713.94
2022-10-19T11:20:07.885Z,100711.66
2022-10-19T11:22:48.125Z,100718.53
2022-10-19T11:25:25.224Z,100710.56
2022-10-19T11:28:15.329Z,100699.59
2022-10-19T11:31:06.758Z,100697.75
2022-10-19T11:33:48.173Z,100697.25
2022-10-19T11:36:46.401Z,100703.34
2022-10-19T11:39:58.377Z,100694.44
2022-10-19T11:42:26.507Z,100706.56
2022-10-19T11:45:00.197Z,100708.06
2022-10-19T11:47:53.050Z,100704.38
2022-10-19T11:50:44.074Z,100698.25
2022-10-19T11:53:48.932Z,100694.41
2022-10-19T11:57:01.855Z,100702.59
2022-10-19T11:59:42.692Z,100705.19
2022-10-19T12:02:29.230Z,100693.13
2022-10-19T12:05:16.391Z,100687.25
2022-10-19T12:08:08.977Z,100701.66
2022-10-19T12:10:45.689Z,100686.16
2022-10-19T12:13:20.496Z,100682.72
2022-10-19T12:15:54.809Z,100695.78
2022-10-19T12:18:56.676Z,100691.75
2022-10-19T12:21:39.218Z,100689.00
2022-10-19T12:24:27.067Z,100673.03
2022-10-19T12:26:58.459Z,100705.38
2022-10-19T12:29:34.473Z,100717.53
2022-10-19T12:32:03.237Z,100704.41
2022-10-19T12:34:38.499Z,100706.94
2022-10-19T12:37:08.436Z,100708.09
2022-10-19T12:39:41.512Z,100705.91
2022-10-19T12:42:31.971Z,100709.09
2022-10-19T12:45:44.159Z,100717.72
2022-10-19T12:48:20.040Z,100723.75
2022-10-19T12:50:48.195Z,100725.00
2022-10-19T12:53:27.483Z,100732.28
2022-10-19T12:56:15.477Z,100724.69
2022-10-19T12:58:50.069Z,100730.34
2022-10-19T13:01:25.917Z,100743.75
2022-10-19T13:04:16.806Z,100738.28
2022-10-19T13:07:06.338Z,100748.56
2022-10-19T13:09:43.471Z,100752.66
2022-10-19T13:12:26.030Z,100739.59
2022-10-19T13:15:01.405Z,100746.97
2022-10-19T13:17:36.923Z,100753.94
2022-10-19T13:20:19.430Z,100750.50
2022-10-19T13:23:04.922Z,100755.66
2022-10-19T13:25:34.415Z,100753.41
2022-10-19T13:28:07.997Z,100770.69
2022-10-19T13:30:40.309Z,100767.13
2022-10-19T13:33:47.800Z,100770.94
2022-10-19T13:36:15.762Z,100770.25
2022-10-19T13:38:59.379Z,100773.00
2022-10-19T13:41:49.443Z,100768.94
2022-10-19T13:44:19.223Z,100759.69
2022-10-19T13:46:55.640Z,100760.13
2022-10-19T13:49:57.211Z,100752.28
2022-10-19T13:52:50.739Z,100748.41
2022-10-19T13:56:08.129Z,100750.03
2022-10-19T13:59:32.016Z,100738.47
2022-10-19T14:02:39.360Z,100742.75
2022-10-19T14:05:41.964Z,100737.59
2022-10-19T14:08:11.282Z,100736.91
2022-10-19T14:13:30.581Z,100734.50
2022-10-19T14:16:01.836Z,100728.63
2022-10-19T14:18:30.873Z,100740.88
2022-10-19T14:21:09.052Z,100731.31
2022-10-19T14:23:40.166Z,100726.31
2022-10-19T14:26:15.340Z,100737.00
2022-10-19T14:29:00.926Z,100714.22
2022-10-19T14:34:20.513Z,100699.91
2022-10-19T14:36:49.623Z,100708.72
2022-10-19T14:39:25.370Z,100707.94
2022-10-19T14:41:55.906Z,100693.00
2022-10-19T14:44:41.229Z,100705.25
2022-10-19T14:47:30.927Z,100696.38
2022-10-19T14:50:09.794Z,100697.38
2022-10-19T14:52:43.191Z,100699.47
2022-10-19T14:55:17.859Z,100705.19
2022-10-19T14:57:49.274Z,100703.63
2022-10-19T15:00:32.317Z,100712.66
2022-10-19T15:03:09.755Z,100713.13
2022-10-19T15:05:42.131Z,100700.50
2022-10-19T15:08:15.613Z,100699.81
2022-10-19T15:10:48.546Z,100693.22
2022-10-19T15:13:27.008Z,100678.63
2022-10-19T15:15:55.625Z,100702.50
2022-10-19T15:18:48.288Z,100696.63
2022-10-19T15:21:21.858Z,100697.81
2022-10-19T15:23:53.026Z,100695.47
2022-10-19T15:26:25.662Z,100690.38
2022-10-19T15:28:56.850Z,100703.34
2022-10-19T15:31:28.374Z,100690.31
2022-10-19T15:34:05.781Z,100691.56
2022-10-19T15:36:33.862Z,100686.50
2022-10-19T15:39:18.214Z,100702.72
2022-10-19T15:41:54.187Z,100705.88
2022-10-19T15:44:55.910Z,100703.59
2022-10-19T15:47:25.901Z,100716.31
2022-10-19T15:50:25.542Z,100709.78
2022-10-19T15:52:52.575Z,100704.22
2022-10-19T15:55:19.819Z,100694.88
2022-10-19T15:58:01.460Z,100692.50
2022-10-19T16:00:30.165Z,100699.91
2022-10-19T16:02:59.605Z,100695.09
2022-10-19T16:05:36.850Z,100686.81
2022-10-19T16:08:25.347Z,100701.81
2022-10-19T16:10:59.087Z,100716.84
2022-10-19T16:13:30.858Z,100705.63
2022-10-19T16:16:11.543Z,100698.00
2022-10-19T16:18:39.246Z,100706.34
2022-10-19T16:21:07.692Z,100698.50
2022-10-19T16:23:39.542Z,100703.19
2022-10-19T16:26:14.549Z,100715.44
2022-10-19T16:28:42.983Z,100720.94
2022-10-19T16:31:13.652Z,100717.78
2022-10-19T16:33:40.766Z,100717.19
2022-10-19T16:36:09.239Z,100720.94
2022-10-19T16:44:39.472Z,100722.94
2022-10-19T16:47:56.893Z,100726.78
2022-10-19T16:53:58.107Z,100713.84
2022-10-19T16:56:28.369Z,100719.41
2022-10-19T16:59:04.789Z,100729.19
2022-10-19T17:01:36.350Z,100720.56
2022-10-19T17:04:05.657Z,100713.81
2022-10-19T17:06:34.403Z,100710.41
2022-10-19T17:11:49.962Z,100699.47
2022-10-19T17:14:17.054Z,100705.75
2022-10-19T17:16:44.414Z,100707.03
2022-10-19T17:19:12.887Z,100719.34
2022-10-19T17:21:46.518Z,100719.44
2022-10-19T17:24:24.443Z,100718.69
2022-10-19T17:26:53.168Z,100726.38
2022-10-19T17:29:23.954Z,100719.84
2022-10-19T17:37:29.420Z,100735.28
2022-10-19T17:39:56.660Z,100733.25
2022-10-19T17:42:23.932Z,100727.13
2022-10-19T17:44:56.599Z,100732.28
2022-10-19T17:50:07.822Z,100737.06
2022-10-19T17:52:35.516Z,100733.66
2022-10-19T17:57:48.251Z,100735.31
2022-10-19T18:00:15.709Z,100736.19
2022-10-19T18:06:24.124Z,100745.09
2022-10-19T18:08:55.503Z,100752.94
2022-10-19T18:11:35.147Z,100752.78
2022-10-19T18:14:07.059Z,100757.22
2022-10-19T18:16:38.290Z,100756.09
2022-10-19T18:19:07.487Z,100750.88
2022-10-19T18:24:23.590Z,100753.16
2022-10-19T18:26:51.739Z,100758.41
2022-10-19T18:29:22.494Z,100753.81
2022-10-19T18:31:59.797Z,100749.56
2022-10-19T18:34:32.562Z,100753.81
2022-10-19T18:37:03.139Z,100747.38
2022-10-19T18:39:32.312Z,100746.38
2022-10-19T18:45:04.989Z,100748.09
2022-10-19T18:47:32.331Z,100751.69
2022-10-19T18:49:59.283Z,100744.72
2022-10-19T18:52:28.558Z,100752.34
2022-10-19T18:54:55.599Z,100754.84
2022-10-19T18:57:42.876Z,100765.16
2022-10-19T19:00:10.861Z,100763.28
2022-10-19T19:02:46.340Z,100762.06
2022-10-19T19:05:15.147Z,100767.28
2022-10-19T19:07:42.557Z,100764.47
2022-10-19T19:10:09.640Z,100760.03
2022-10-19T19:12:39.540Z,100769.53
2022-10-19T19:15:09.992Z,100769.25
2022-10-19T19:17:39.351Z,100767.13
2022-10-19T19:20:09.966Z,100778.38
2022-10-19T19:22:46.973Z,100774.63
2022-10-19T19:25:16.523Z,100773.50
2022-10-19T19:27:50.991Z,100775.81
2022-10-19T19:30:20.888Z,100771.41
2022-10-19T19:32:48.937Z,100767.88
2022-10-19T19:35:16.022Z,100773.78
2022-10-19T19:37:47.127Z,100782.63
2022-10-19T19:40:18.887Z,100774.44
2022-10-19T19:42:52.247Z,100766.28
2022-10-19T19:45:19.361Z,100773.22
2022-10-19T19:47:46.747Z,100773.94
2022-10-19T19:50:14.180Z,100784.47
2022-10-19T19:52:42.658Z,100795.03
2022-10-19T19:55:09.771Z,100778.34
2022-10-19T19:57:37.570Z,100777.47
2022-10-19T20:00:05.655Z,100771.72
2022-10-19T20:02:37.447Z,100775.25
2022-10-19T20:05:04.778Z,100785.75
2022-10-19T20:07:32.256Z,100773.56
2022-10-19T20:09:59.376Z,100787.72
2022-10-19T20:12:29.441Z,100782.63
2022-10-19T20:14:56.654Z,100791.25
2022-10-19T20:17:25.160Z,100789.50
2022-10-19T20:19:52.579Z,100786.88
2022-10-19T20:22:24.244Z,100788.69
2022-10-19T20:24:52.160Z,100786.03
2022-10-19T20:27:19.692Z,100786.19
2022-10-19T20:29:47.997Z,100788.25
2022-10-19T20:32:16.311Z,100786.53
2022-10-19T20:34:44.653Z,100789.53
2022-10-19T20:37:12.019Z,100786.16
2022-10-19T20:39:41.610Z,100790.03
2022-10-19T20:42:09.259Z,100788.56
2022-10-19T20:44:36.581Z,100777.38
2022-10-19T20:47:03.792Z,100781.41
2022-10-19T20:52:15.457Z,100788.53
2022-10-19T20:54:43.494Z,100795.69
2022-10-19T20:57:13.561Z,100792.38
2022-10-19T20:59:41.626Z,100804.97
2022-10-19T21:02:10.970Z,100814.59
2022-10-19T21:04:38.061Z,100805.75
2022-10-19T21:07:06.406Z,100805.91
2022-10-19T21:09:33.689Z,100814.50
2022-10-19T21:12:05.429Z,100809.22
2022-10-19T21:14:33.605Z,100811.66
2022-10-19T21:17:02.038Z,100815.22
2022-10-19T21:19:31.493Z,100810.69
2022-10-19T21:22:10.480Z,100798.25
2022-10-19T21:24:41.973Z,100806.50
2022-10-19T21:27:09.896Z,100798.91
2022-10-19T21:29:38.047Z,100800.69
2022-10-19T21:32:06.380Z,100802.56
2022-10-19T21:34:33.970Z,100806.09
2022-10-19T21:37:01.511Z,100807.09
2022-10-19T21:39:29.470Z,100796.59
2022-10-19T21:41:57.397Z,100795.56
2022-10-19T21:44:24.407Z,100789.50
2022-10-19T21:46:51.842Z,100801.91
2022-10-19T21:49:19.050Z,100802.28
2022-10-19T21:51:53.664Z,100804.75
2022-10-19T21:54:26.622Z,100802.44
2022-10-19T21:56:55.957Z,100794.69
2022-10-19T21:59:23.034Z,100780.78
2022-10-19T22:01:50.486Z,100788.03
2022-10-19T22:04:18.605Z,100805.75
2022-10-19T22:06:46.827Z,100802.41
2022-10-19T22:09:17.342Z,100792.38
2022-10-19T22:11:45.570Z,100797.69
2022-10-19T22:14:14.002Z,100807.66
2022-10-19T22:16:41.894Z,100811.38
2022-10-19T22:19:10.152Z,100801.03
2022-10-19T22:24:09.609Z,100810.28
2022-10-19T22:26:42.168Z,100808.47
2022-10-19T22:29:09.542Z,100818.56
2022-10-19T22:31:37.299Z,100820.47
2022-10-19T22:34:06.979Z,100818.03
2022-10-19T22:36:34.534Z,100806.72
2022-10-19T22:39:01.898Z,100816.72
2022-10-19T22:41:29.345Z,100809.75
2022-10-19T22:43:56.322Z,100811.84
2022-10-19T22:46:23.525Z,100827.78
2022-10-19T22:48:50.475Z,100809.47
2022-10-19T22:51:17.709Z,100824.56
2022-10-19T22:53:45.251Z,100804.38
2022-10-19T22:56:12.911Z,100805.47
2022-10-19T22:58:40.383Z,100812.66
2022-10-19T23:01:12.766Z,100812.75
2022-10-19T23:03:40.918Z,100807.66
2022-10-19T23:06:09.533Z,100809.59
2022-10-19T23:08:37.178Z,100820.28
2022-10-19T23:11:05.051Z,100810.69
2022-10-19T23:13:32.049Z,100820.59
2022-10-19T23:15:59.335Z,100823.44
2022-10-19T23:18:26.665Z,100820.00
2022-10-19T23:20:59.322Z,100844.03
2022-10-19T23:23:27.133Z,100837.09
2022-10-19T23:26:04.897Z,100844.22
2022-10-19T23:28:33.650Z,100848.72
2022-10-19T23:31:24.454Z,100848.00
2022-10-19T23:33:53.277Z,100826.91
2022-10-19T23:36:27.091Z,100835.91
2022-10-19T23:38:56.117Z,100837.75
2022-10-19T23:41:24.180Z,100829.00
2022-10-19T23:43:51.321Z,100834.59
2022-10-19T23:46:18.890Z,100827.50
2022-10-19T23:48:45.908Z,100824.03
2022-10-19T23:51:15.587Z,100845.28
2022-10-19T23:53:44.969Z,100838.34
2022-10-19T23:56:19.613Z,100838.44
2022-10-19T23:58:47.355Z,100842.06
